sensor_id;sensor_type;location;lat;lon;timestamp;temperature;humidity
85052;DHT22;75382;46.706;12.340;2024-01-15T00:00:27;-6.099999904632568;70.0
85052;DHT22;75382;46.706;12.340;2024-01-15T00:01:26;-6.099999904632568;70.0
85052;DHT22;75382;46.706;12.340;2024-01-15T00:02:27;-6.0;70.0
85052;DHT22;75382;46.706;12.340;2024-01-15T00:03:26;-6.0;70.0
85052;DHT22;75382;46.706;12.340;2024-01-15T00:04:26;-6.0;70.0
85052;DHT22;75382;46.706;12.340;2024-01-15T00:05:26;-6.0;70.0999984741211
85052;DHT22;75382;46.706;12.340;2024-01-15T00:06:29;-6.0;70.19999694824219
85052;DHT22;75382;46.706;12.340;2024-01-15T00:07:26;-6.0;70.0999984741211
85052;DHT22;75382;46.706;12.340;2024-01-15T00:08:26;-6.0;70.19999694824219
85052;DHT22;75382;46.706;12.340;2024-01-15T00:09:29;-5.900000095367432;70.19999694824219
85052;DHT22;75382;46.706;12.340;2024-01-15T00:10:26;-5.900000095367432;70.19999694824219
85052;DHT22;75382;46.706;12.340;2024-01-15T00:11:34;-5.900000095367432;70.30000305175781
85052;DHT22;75382;46.706;12.340;2024-01-15T00:12:26;-5.900000095367432;70.30000305175781
85052;DHT22;75382;46.706;12.340;2024-01-15T00:13:27;-5.900000095367432;70.30000305175781
85052;DHT22;75382;46.706;12.340;2024-01-15T00:14:27;-5.900000095367432;70.30000305175781
85052;DHT22;75382;46.706;12.340;2024-01-15T00:15:28;-5.900000095367432;70.30000305175781
85052;DHT22;75382;46.706;12.340;2024-01-15T00:16:26;-5.900000095367432;70.30000305175781
85052;DHT22;75382;46.706;12.340;2024-01-15T00:17:26;-5.800000190734863;70.4000015258789
85052;DHT22;75382;46.706;12.340;2024-01-15T00:18:26;-5.800000190734863;70.4000015258789
85052;DHT22;75382;46.706;12.340;2024-01-15T00:19:28;-5.800000190734863;70.5
85052;DHT22;75382;46.706;12.340;2024-01-15T00:20:26;-5.800000190734863;70.5999984741211
85052;DHT22;75382;46.706;12.340;2024-01-15T00:21:26;-5.800000190734863;70.5999984741211
85052;DHT22;75382;46.706;12.340;2024-01-15T00:22:29;-5.800000190734863;70.69999694824219
85052;DHT22;75382;46.706;12.340;2024-01-15T00:23:26;-5.800000190734863;70.5999984741211
85052;DHT22;75382;46.706;12.340;2024-01-15T00:24:26;-5.800000190734863;70.5999984741211
85052;DHT22;75382;46.706;12.340;2024-01-15T00:25:26;-5.800000190734863;70.5999984741211
85052;DHT22;75382;46.706;12.340;2024-01-15T00:26:27;-5.699999809265137;70.5999984741211
85052;DHT22;75382;46.706;12.340;2024-01-15T00:27:26;-5.699999809265137;70.5999984741211
85052;DHT22;75382;46.706;12.340;2024-01-15T00:28:26;-5.699999809265137;70.5999984741211
85052;DHT22;75382;46.706;12.340;2024-01-15T00:29:26;-5.699999809265137;70.5999984741211
85052;DHT22;75382;46.706;12.340;2024-01-15T00:30:29;-5.699999809265137;70.69999694824219
85052;DHT22;75382;46.706;12.340;2024-01-15T00:31:27;-5.699999809265137;70.69999694824219
85052;DHT22;75382;46.706;12.340;2024-01-15T00:32:26;-5.699999809265137;70.5999984741211
85052;DHT22;75382;46.706;12.340;2024-01-15T00:33:29;-5.699999809265137;70.5999984741211
85052;DHT22;75382;46.706;12.340;2024-01-15T00:34:26;-5.699999809265137;70.69999694824219
85052;DHT22;75382;46.706;12.340;2024-01-15T00:35:26;-5.599999904632568;70.5999984741211
85052;DHT22;75382;46.706;12.340;2024-01-15T00:36:27;-5.699999809265137;70.5
85052;DHT22;75382;46.706;12.340;2024-01-15T00:37:26;-5.599999904632568;70.5999984741211
85052;DHT22;75382;46.706;12.340;2024-01-15T00:38:26;-5.699999809265137;70.5
85052;DHT22;75382;46.706;12.340;2024-01-15T00:39:27;-5.599999904632568;70.5
85052;DHT22;75382;46.706;12.340;2024-01-15T00:40:30;-5.599999904632568;70.5999984741211
85052;DHT22;75382;46.706;12.340;2024-01-15T00:41:29;-5.599999904632568;70.69999694824219
85052;DHT22;75382;46.706;12.340;2024-01-15T00:42:27;-5.599999904632568;70.69999694824219
85052;DHT22;75382;46.706;12.340;2024-01-15T00:43:26;-5.599999904632568;70.80000305175781
85052;DHT22;75382;46.706;12.340;2024-01-15T00:44:26;-5.599999904632568;70.80000305175781
85052;DHT22;75382;46.706;12.340;2024-01-15T00:45:26;-5.599999904632568;70.80000305175781
85052;DHT22;75382;46.706;12.340;2024-01-15T00:46:26;-5.5;70.80000305175781
85052;DHT22;75382;46.706;12.340;2024-01-15T00:47:26;-5.5;70.80000305175781
85052;DHT22;75382;46.706;12.340;2024-01-15T00:48:29;-5.5;70.80000305175781
85052;DHT22;75382;46.706;12.340;2024-01-15T00:49:27;-5.5;70.80000305175781
85052;DHT22;75382;46.706;12.340;2024-01-15T00:50:27;-5.5;70.9000015258789
85052;DHT22;75382;46.706;12.340;2024-01-15T00:51:26;-5.5;70.9000015258789
85052;DHT22;75382;46.706;12.340;2024-01-15T00:52:26;-5.5;70.9000015258789
85052;DHT22;75382;46.706;12.340;2024-01-15T00:53:26;-5.5;70.69999694824219
85052;DHT22;75382;46.706;12.340;2024-01-15T00:54:27;-5.5;70.69999694824219
85052;DHT22;75382;46.706;12.340;2024-01-15T00:55:28;-5.5;70.69999694824219
85052;DHT22;75382;46.706;12.340;2024-01-15T00:56:26;-5.400000095367432;70.80000305175781
85052;DHT22;75382;46.706;12.340;2024-01-15T00:57:26;-5.400000095367432;70.80000305175781
85052;DHT22;75382;46.706;12.340;2024-01-15T00:58:27;-5.5;70.80000305175781
85052;DHT22;75382;46.706;12.340;2024-01-15T00:59:26;-5.400000095367432;70.30000305175781
85052;DHT22;75382;46.706;12.340;2024-01-15T01:00:26;-5.400000095367432;70.69999694824219
85052;DHT22;75382;46.706;12.340;2024-01-15T01:01:26;-5.400000095367432;70.80000305175781
85052;DHT22;75382;46.706;12.340;2024-01-15T01:02:27;-5.400000095367432;70.69999694824219
85052;DHT22;75382;46.706;12.340;2024-01-15T01:03:27;-5.400000095367432;70.5999984741211
85052;DHT22;75382;46.706;12.340;2024-01-15T01:04:26;-5.300000190734863;70.5999984741211
85052;DHT22;75382;46.706;12.340;2024-01-15T01:05:26;-5.300000190734863;70.69999694824219
85052;DHT22;75382;46.706;12.340;2024-01-15T01:06:26;-5.300000190734863;70.5999984741211
85052;DHT22;75382;46.706;12.340;2024-01-15T01:07:26;-5.300000190734863;70.5999984741211
85052;DHT22;75382;46.706;12.340;2024-01-15T01:08:26;-5.300000190734863;70.5
85052;DHT22;75382;46.706;12.340;2024-01-15T01:09:26;-5.300000190734863;70.5999984741211
85052;DHT22;75382;46.706;12.340;2024-01-15T01:10:29;-5.300000190734863;70.5999984741211
85052;DHT22;75382;46.706;12.340;2024-01-15T01:11:26;-5.300000190734863;70.5999984741211
85052;DHT22;75382;46.706;12.340;2024-01-15T01:12:27;-5.300000190734863;70.69999694824219
85052;DHT22;75382;46.706;12.340;2024-01-15T01:13:26;-5.300000190734863;70.5
85052;DHT22;75382;46.706;12.340;2024-01-15T01:14:26;-5.199999809265137;70.5
85052;DHT22;75382;46.706;12.340;2024-01-15T01:15:26;-5.199999809265137;70.4000015258789
85052;DHT22;75382;46.706;12.340;2024-01-15T01:16:29;-5.199999809265137;70.4000015258789
85052;DHT22;75382;46.706;12.340;2024-01-15T01:17:26;-5.199999809265137;70.4000015258789
85052;DHT22;75382;46.706;12.340;2024-01-15T01:18:26;-5.199999809265137;70.30000305175781
85052;DHT22;75382;46.706;12.340;2024-01-15T01:19:26;-5.199999809265137;70.19999694824219
85052;DHT22;75382;46.706;12.340;2024-01-15T01:20:27;-5.199999809265137;70.19999694824219
85052;DHT22;75382;46.706;12.340;2024-01-15T01:21:27;-5.199999809265137;70.19999694824219
85052;DHT22;75382;46.706;12.340;2024-01-15T01:22:29;-5.199999809265137;70.30000305175781
85052;DHT22;75382;46.706;12.340;2024-01-15T01:23:26;-5.199999809265137;70.19999694824219
85052;DHT22;75382;46.706;12.340;2024-01-15T01:24:26;-5.199999809265137;70.19999694824219
85052;DHT22;75382;46.706;12.340;2024-01-15T01:25:27;-5.300000190734863;70.0999984741211
85052;DHT22;75382;46.706;12.340;2024-01-15T01:26:26;-5.300000190734863;70.0999984741211
85052;DHT22;75382;46.706;12.340;2024-01-15T01:27:27;-5.199999809265137;70.0999984741211
85052;DHT22;75382;46.706;12.340;2024-01-15T01:28:28;-5.300000190734863;70.0999984741211
85052;DHT22;75382;46.706;12.340;2024-01-15T01:29:27;-5.199999809265137;70.0999984741211
85052;DHT22;75382;46.706;12.340;2024-01-15T01:30:26;-5.199999809265137;70.0
85052;DHT22;75382;46.706;12.340;2024-01-15T01:31:26;-5.300000190734863;69.9000015258789
85052;DHT22;75382;46.706;12.340;2024-01-15T01:32:29;-5.300000190734863;69.80000305175781
85052;DHT22;75382;46.706;12.340;2024-01-15T01:33:29;-5.300000190734863;69.69999694824219
85052;DHT22;75382;46.706;12.340;2024-01-15T01:34:27;-5.300000190734863;69.69999694824219
85052;DHT22;75382;46.706;12.340;2024-01-15T01:35:26;-5.300000190734863;69.69999694824219
85052;DHT22;75382;46.706;12.340;2024-01-15T01:36:26;-5.300000190734863;69.69999694824219
85052;DHT22;75382;46.706;12.340;2024-01-15T01:37:26;-5.300000190734863;69.69999694824219
85052;DHT22;75382;46.706;12.340;2024-01-15T01:38:26;-5.300000190734863;69.69999694824219
85052;DHT22;75382;46.706;12.340;2024-01-15T01:39:26;-5.300000190734863;69.69999694824219
85052;DHT22;75382;46.706;12.340;2024-01-15T01:40:29;-5.300000190734863;69.69999694824219
85052;DHT22;75382;46.706;12.340;2024-01-15T01:41:26;-5.300000190734863;69.69999694824219
85052;DHT22;75382;46.706;12.340;2024-01-15T01:42:26;-5.300000190734863;69.69999694824219
85052;DHT22;75382;46.706;12.340;2024-01-15T01:43:26;-5.300000190734863;69.69999694824219
85052;DHT22;75382;46.706;12.340;2024-01-15T01:44:26;-5.400000095367432;69.69999694824219
85052;DHT22;75382;46.706;12.340;2024-01-15T01:45:26;-5.400000095367432;69.69999694824219
85052;DHT22;75382;46.706;12.340;2024-01-15T01:46:28;-5.400000095367432;69.5999984741211
85052;DHT22;75382;46.706;12.340;2024-01-15T01:47:27;-5.400000095367432;69.69999694824219
85052;DHT22;75382;46.706;12.340;2024-01-15T01:48:27;-5.400000095367432;69.80000305175781
85052;DHT22;75382;46.706;12.340;2024-01-15T01:49:27;-5.400000095367432;69.80000305175781
85052;DHT22;75382;46.706;12.340;2024-01-15T01:50:27;-5.400000095367432;69.9000015258789
85052;DHT22;75382;46.706;12.340;2024-01-15T01:51:26;-5.400000095367432;70.0
85052;DHT22;75382;46.706;12.340;2024-01-15T01:52:27;-5.400000095367432;69.9000015258789
85052;DHT22;75382;46.706;12.340;2024-01-15T01:53:27;-5.400000095367432;69.9000015258789
85052;DHT22;75382;46.706;12.340;2024-01-15T01:54:31;-5.400000095367432;70.0
85052;DHT22;75382;46.706;12.340;2024-01-15T01:55:29;-5.400000095367432;69.9000015258789
85052;DHT22;75382;46.706;12.340;2024-01-15T01:56:30;-5.400000095367432;70.0
85052;DHT22;75382;46.706;12.340;2024-01-15T01:57:26;-5.400000095367432;70.0
85052;DHT22;75382;46.706;12.340;2024-01-15T01:58:28;-5.400000095367432;70.0999984741211
85052;DHT22;75382;46.706;12.340;2024-01-15T01:59:28;-5.400000095367432;70.0999984741211
85052;DHT22;75382;46.706;12.340;2024-01-15T02:00:27;-5.400000095367432;70.0999984741211
85052;DHT22;75382;46.706;12.340;2024-01-15T02:01:26;-5.400000095367432;70.0
85052;DHT22;75382;46.706;12.340;2024-01-15T02:02:26;-5.300000190734863;70.0
85052;DHT22;75382;46.706;12.340;2024-01-15T02:03:27;-5.400000095367432;70.0
85052;DHT22;75382;46.706;12.340;2024-01-15T02:04:27;-5.400000095367432;69.9000015258789
85052;DHT22;75382;46.706;12.340;2024-01-15T02:05:28;-5.400000095367432;70.0
85052;DHT22;75382;46.706;12.340;2024-01-15T02:06:29;-5.400000095367432;69.80000305175781
85052;DHT22;75382;46.706;12.340;2024-01-15T02:07:26;-5.300000190734863;69.80000305175781
85052;DHT22;75382;46.706;12.340;2024-01-15T02:08:27;-5.400000095367432;69.80000305175781
85052;DHT22;75382;46.706;12.340;2024-01-15T02:09:26;-5.300000190734863;69.80000305175781
85052;DHT22;75382;46.706;12.340;2024-01-15T02:10:26;-5.400000095367432;69.80000305175781
85052;DHT22;75382;46.706;12.340;2024-01-15T02:11:26;-5.400000095367432;69.69999694824219
85052;DHT22;75382;46.706;12.340;2024-01-15T02:12:26;-5.400000095367432;69.80000305175781
85052;DHT22;75382;46.706;12.340;2024-01-15T02:13:26;-5.400000095367432;69.69999694824219
85052;DHT22;75382;46.706;12.340;2024-01-15T02:14:26;-5.300000190734863;69.69999694824219
85052;DHT22;75382;46.706;12.340;2024-01-15T02:15:26;-5.400000095367432;69.5
85052;DHT22;75382;46.706;12.340;2024-01-15T02:16:29;-5.400000095367432;69.5999984741211
85052;DHT22;75382;46.706;12.340;2024-01-15T02:17:26;-5.400000095367432;68.0
85052;DHT22;75382;46.706;12.340;2024-01-15T02:18:26;-5.400000095367432;69.5
85052;DHT22;75382;46.706;12.340;2024-01-15T02:19:26;-5.400000095367432;69.5999984741211
85052;DHT22;75382;46.706;12.340;2024-01-15T02:20:27;-5.400000095367432;69.5
85052;DHT22;75382;46.706;12.340;2024-01-15T02:21:30;-5.400000095367432;69.5
85052;DHT22;75382;46.706;12.340;2024-01-15T02:22:26;-5.400000095367432;69.5
85052;DHT22;75382;46.706;12.340;2024-01-15T02:23:29;-5.400000095367432;69.5
85052;DHT22;75382;46.706;12.340;2024-01-15T02:24:26;-5.400000095367432;69.5999984741211
85052;DHT22;75382;46.706;12.340;2024-01-15T02:25:29;-5.400000095367432;69.5999984741211
85052;DHT22;75382;46.706;12.340;2024-01-15T02:26:27;-5.400000095367432;69.5999984741211
85052;DHT22;75382;46.706;12.340;2024-01-15T02:27:26;-5.400000095367432;69.5999984741211
85052;DHT22;75382;46.706;12.340;2024-01-15T02:28:26;-5.400000095367432;69.5
85052;DHT22;75382;46.706;12.340;2024-01-15T02:29:26;-5.400000095367432;69.4000015258789
85052;DHT22;75382;46.706;12.340;2024-01-15T02:30:28;-5.400000095367432;69.5
85052;DHT22;75382;46.706;12.340;2024-01-15T02:31:26;-5.400000095367432;69.4000015258789
85052;DHT22;75382;46.706;12.340;2024-01-15T02:32:26;-5.400000095367432;69.4000015258789
85052;DHT22;75382;46.706;12.340;2024-01-15T02:33:26;-5.400000095367432;69.4000015258789
85052;DHT22;75382;46.706;12.340;2024-01-15T02:34:26;-5.400000095367432;69.30000305175781
85052;DHT22;75382;46.706;12.340;2024-01-15T02:35:29;-5.5;69.30000305175781
85052;DHT22;75382;46.706;12.340;2024-01-15T02:36:26;-5.400000095367432;69.30000305175781
85052;DHT22;75382;46.706;12.340;2024-01-15T02:37:26;-5.400000095367432;69.4000015258789
85052;DHT22;75382;46.706;12.340;2024-01-15T02:38:26;-5.400000095367432;69.4000015258789
85052;DHT22;75382;46.706;12.340;2024-01-15T02:39:27;-5.400000095367432;69.4000015258789
85052;DHT22;75382;46.706;12.340;2024-01-15T02:40:26;-5.5;69.30000305175781
85052;DHT22;75382;46.706;12.340;2024-01-15T02:41:26;-5.5;69.19999694824219
85052;DHT22;75382;46.706;12.340;2024-01-15T02:42:27;-5.5;69.30000305175781
85052;DHT22;75382;46.706;12.340;2024-01-15T02:43:26;-5.5;69.30000305175781
85052;DHT22;75382;46.706;12.340;2024-01-15T02:44:29;-5.5;69.30000305175781
85052;DHT22;75382;46.706;12.340;2024-01-15T02:45:27;-5.5;69.30000305175781
85052;DHT22;75382;46.706;12.340;2024-01-15T02:46:26;-5.5;69.19999694824219
85052;DHT22;75382;46.706;12.340;2024-01-15T02:47:26;-5.5;69.19999694824219
85052;DHT22;75382;46.706;12.340;2024-01-15T02:48:26;-5.5;69.0999984741211
85052;DHT22;75382;46.706;12.340;2024-01-15T02:49:27;-5.5;69.0999984741211
85052;DHT22;75382;46.706;12.340;2024-01-15T02:50:29;-5.5;69.0
85052;DHT22;75382;46.706;12.340;2024-01-15T02:51:29;-5.599999904632568;69.0999984741211
85052;DHT22;75382;46.706;12.340;2024-01-15T02:52:26;-5.5;69.0
85052;DHT22;75382;46.706;12.340;2024-01-15T02:53:27;-5.599999904632568;69.0999984741211
85052;DHT22;75382;46.706;12.340;2024-01-15T02:54:26;-5.599999904632568;69.0999984741211
85052;DHT22;75382;46.706;12.340;2024-01-15T02:55:30;-5.599999904632568;69.0
85052;DHT22;75382;46.706;12.340;2024-01-15T02:56:26;-5.599999904632568;69.0
85052;DHT22;75382;46.706;12.340;2024-01-15T02:57:26;-5.599999904632568;69.0
85052;DHT22;75382;46.706;12.340;2024-01-15T02:58:26;-5.599999904632568;68.9000015258789
85052;DHT22;75382;46.706;12.340;2024-01-15T02:59:27;-5.699999809265137;68.9000015258789
85052;DHT22;75382;46.706;12.340;2024-01-15T03:00:26;-5.599999904632568;68.80000305175781
85052;DHT22;75382;46.706;12.340;2024-01-15T03:01:26;-5.699999809265137;68.80000305175781
85052;DHT22;75382;46.706;12.340;2024-01-15T03:02:26;-5.699999809265137;68.69999694824219
85052;DHT22;75382;46.706;12.340;2024-01-15T03:03:29;-5.699999809265137;68.5999984741211
85052;DHT22;75382;46.706;12.340;2024-01-15T03:04:26;-5.699999809265137;68.5999984741211
85052;DHT22;75382;46.706;12.340;2024-01-15T03:05:32;-5.699999809265137;68.69999694824219
85052;DHT22;75382;46.706;12.340;2024-01-15T03:06:26;-5.699999809265137;68.69999694824219
85052;DHT22;75382;46.706;12.340;2024-01-15T03:07:28;-5.699999809265137;68.69999694824219
85052;DHT22;75382;46.706;12.340;2024-01-15T03:08:26;-5.699999809265137;68.5999984741211
85052;DHT22;75382;46.706;12.340;2024-01-15T03:09:26;-5.699999809265137;68.69999694824219
85052;DHT22;75382;46.706;12.340;2024-01-15T03:10:26;-5.800000190734863;68.80000305175781
85052;DHT22;75382;46.706;12.340;2024-01-15T03:11:29;-5.800000190734863;68.9000015258789
85052;DHT22;75382;46.706;12.340;2024-01-15T03:12:26;-5.800000190734863;69.0
85052;DHT22;75382;46.706;12.340;2024-01-15T03:13:26;-5.800000190734863;68.9000015258789
85052;DHT22;75382;46.706;12.340;2024-01-15T03:14:27;-5.800000190734863;69.0
85052;DHT22;75382;46.706;12.340;2024-01-15T03:15:26;-5.800000190734863;69.0
85052;DHT22;75382;46.706;12.340;2024-01-15T03:16:26;-5.800000190734863;69.0
85052;DHT22;75382;46.706;12.340;2024-01-15T03:17:27;-5.800000190734863;69.0
85052;DHT22;75382;46.706;12.340;2024-01-15T03:18:26;-5.800000190734863;69.0999984741211
85052;DHT22;75382;46.706;12.340;2024-01-15T03:19:26;-5.800000190734863;69.19999694824219
85052;DHT22;75382;46.706;12.340;2024-01-15T03:20:27;-5.800000190734863;69.30000305175781
85052;DHT22;75382;46.706;12.340;2024-01-15T03:21:26;-5.800000190734863;69.30000305175781
85052;DHT22;75382;46.706;12.340;2024-01-15T03:22:26;-5.800000190734863;69.19999694824219
85052;DHT22;75382;46.706;12.340;2024-01-15T03:23:26;-5.699999809265137;69.30000305175781
85052;DHT22;75382;46.706;12.340;2024-01-15T03:24:26;-5.800000190734863;69.30000305175781
85052;DHT22;75382;46.706;12.340;2024-01-15T03:25:26;-5.699999809265137;69.30000305175781
85052;DHT22;75382;46.706;12.340;2024-01-15T03:26:29;-5.800000190734863;69.30000305175781
85052;DHT22;75382;46.706;12.340;2024-01-15T03:27:27;-5.800000190734863;69.4000015258789
85052;DHT22;75382;46.706;12.340;2024-01-15T03:28:27;-5.800000190734863;69.30000305175781
85052;DHT22;75382;46.706;12.340;2024-01-15T03:29:26;-5.699999809265137;69.30000305175781
85052;DHT22;75382;46.706;12.340;2024-01-15T03:30:26;-5.800000190734863;69.19999694824219
85052;DHT22;75382;46.706;12.340;2024-01-15T03:31:26;-5.699999809265137;69.19999694824219
85052;DHT22;75382;46.706;12.340;2024-01-15T03:32:29;-5.699999809265137;69.0999984741211
85052;DHT22;75382;46.706;12.340;2024-01-15T03:33:29;-5.800000190734863;69.0
85052;DHT22;75382;46.706;12.340;2024-01-15T03:34:26;-5.800000190734863;69.0
85052;DHT22;75382;46.706;12.340;2024-01-15T03:35:30;-5.699999809265137;69.0999984741211
85052;DHT22;75382;46.706;12.340;2024-01-15T03:36:26;-5.800000190734863;69.0
85052;DHT22;75382;46.706;12.340;2024-01-15T03:37:26;-5.800000190734863;69.0
85052;DHT22;75382;46.706;12.340;2024-01-15T03:38:28;-5.800000190734863;69.0
85052;DHT22;75382;46.706;12.340;2024-01-15T03:39:26;-5.800000190734863;68.9000015258789
85052;DHT22;75382;46.706;12.340;2024-01-15T03:40:26;-5.800000190734863;68.9000015258789
85052;DHT22;75382;46.706;12.340;2024-01-15T03:41:27;-5.800000190734863;68.9000015258789
85052;DHT22;75382;46.706;12.340;2024-01-15T03:42:27;-5.800000190734863;69.0
85052;DHT22;75382;46.706;12.340;2024-01-15T03:43:27;-5.800000190734863;69.0
85052;DHT22;75382;46.706;12.340;2024-01-15T03:44:26;-5.800000190734863;69.0
85052;DHT22;75382;46.706;12.340;2024-01-15T03:45:26;-5.800000190734863;69.0
85052;DHT22;75382;46.706;12.340;2024-01-15T03:46:26;-5.800000190734863;69.0
85052;DHT22;75382;46.706;12.340;2024-01-15T03:47:26;-5.800000190734863;68.9000015258789
85052;DHT22;75382;46.706;12.340;2024-01-15T03:48:26;-5.800000190734863;68.9000015258789
85052;DHT22;75382;46.706;12.340;2024-01-15T03:49:26;-5.800000190734863;68.9000015258789
85052;DHT22;75382;46.706;12.340;2024-01-15T03:50:26;-5.900000095367432;68.9000015258789
85052;DHT22;75382;46.706;12.340;2024-01-15T03:51:26;-5.800000190734863;68.9000015258789
85052;DHT22;75382;46.706;12.340;2024-01-15T03:52:26;-5.800000190734863;68.9000015258789
85052;DHT22;75382;46.706;12.340;2024-01-15T03:53:32;-5.800000190734863;68.80000305175781
85052;DHT22;75382;46.706;12.340;2024-01-15T03:54:28;-5.800000190734863;68.80000305175781
85052;DHT22;75382;46.706;12.340;2024-01-15T03:55:26;-5.900000095367432;68.80000305175781
85052;DHT22;75382;46.706;12.340;2024-01-15T03:56:26;-5.900000095367432;68.9000015258789
85052;DHT22;75382;46.706;12.340;2024-01-15T03:57:28;-5.900000095367432;68.80000305175781
85052;DHT22;75382;46.706;12.340;2024-01-15T03:58:26;-5.800000190734863;68.9000015258789
85052;DHT22;75382;46.706;12.340;2024-01-15T03:59:27;-5.900000095367432;68.80000305175781
85052;DHT22;75382;46.706;12.340;2024-01-15T04:00:27;-5.900000095367432;68.80000305175781
85052;DHT22;75382;46.706;12.340;2024-01-15T04:01:26;-5.900000095367432;68.9000015258789
85052;DHT22;75382;46.706;12.340;2024-01-15T04:02:29;-5.900000095367432;68.9000015258789
85052;DHT22;75382;46.706;12.340;2024-01-15T04:03:26;-5.900000095367432;68.9000015258789
85052;DHT22;75382;46.706;12.340;2024-01-15T04:04:27;-5.900000095367432;69.0
85052;DHT22;75382;46.706;12.340;2024-01-15T04:05:27;-5.900000095367432;69.0
85052;DHT22;75382;46.706;12.340;2024-01-15T04:06:27;-5.900000095367432;69.0
85052;DHT22;75382;46.706;12.340;2024-01-15T04:07:29;-5.900000095367432;69.19999694824219
85052;DHT22;75382;46.706;12.340;2024-01-15T04:08:26;-5.900000095367432;69.19999694824219
85052;DHT22;75382;46.706;12.340;2024-01-15T04:09:32;-5.900000095367432;69.19999694824219
85052;DHT22;75382;46.706;12.340;2024-01-15T04:10:46;-5.900000095367432;69.4000015258789
85052;DHT22;75382;46.706;12.340;2024-01-15T04:11:46;-5.900000095367432;69.5
85052;DHT22;75382;46.706;12.340;2024-01-15T04:12:47;-5.900000095367432;69.69999694824219
85052;DHT22;75382;46.706;12.340;2024-01-15T04:13:46;-5.800000190734863;69.80000305175781
85052;DHT22;75382;46.706;12.340;2024-01-15T04:14:46;-5.800000190734863;69.80000305175781
85052;DHT22;75382;46.706;12.340;2024-01-15T04:15:46;-5.800000190734863;69.80000305175781
85052;DHT22;75382;46.706;12.340;2024-01-15T04:16:46;-5.800000190734863;69.9000015258789
85052;DHT22;75382;46.706;12.340;2024-01-15T04:17:47;-5.800000190734863;69.9000015258789
85052;DHT22;75382;46.706;12.340;2024-01-15T04:18:46;-5.800000190734863;69.9000015258789
85052;DHT22;75382;46.706;12.340;2024-01-15T04:19:46;-5.800000190734863;70.0
85052;DHT22;75382;46.706;12.340;2024-01-15T04:20:46;-5.800000190734863;70.0999984741211
85052;DHT22;75382;46.706;12.340;2024-01-15T04:21:46;-5.800000190734863;70.0999984741211
85052;DHT22;75382;46.706;12.340;2024-01-15T04:22:46;-5.699999809265137;70.0999984741211
85052;DHT22;75382;46.706;12.340;2024-01-15T04:23:46;-5.699999809265137;70.19999694824219
85052;DHT22;75382;46.706;12.340;2024-01-15T04:24:51;-5.699999809265137;70.19999694824219
85052;DHT22;75382;46.706;12.340;2024-01-15T04:25:47;-5.699999809265137;70.0999984741211
85052;DHT22;75382;46.706;12.340;2024-01-15T04:26:47;-5.699999809265137;70.19999694824219
85052;DHT22;75382;46.706;12.340;2024-01-15T04:27:46;-5.699999809265137;70.19999694824219
85052;DHT22;75382;46.706;12.340;2024-01-15T04:28:48;-5.599999904632568;70.19999694824219
85052;DHT22;75382;46.706;12.340;2024-01-15T04:29:46;-5.599999904632568;70.0999984741211
85052;DHT22;75382;46.706;12.340;2024-01-15T04:30:48;-5.599999904632568;70.19999694824219
85052;DHT22;75382;46.706;12.340;2024-01-15T04:31:46;-5.599999904632568;70.19999694824219
85052;DHT22;75382;46.706;12.340;2024-01-15T04:32:46;-5.599999904632568;70.0999984741211
85052;DHT22;75382;46.706;12.340;2024-01-15T04:33:47;-5.599999904632568;70.0999984741211
85052;DHT22;75382;46.706;12.340;2024-01-15T04:34:46;-5.599999904632568;70.0999984741211
85052;DHT22;75382;46.706;12.340;2024-01-15T04:35:46;-5.599999904632568;70.19999694824219
85052;DHT22;75382;46.706;12.340;2024-01-15T04:36:46;-5.599999904632568;70.0999984741211
85052;DHT22;75382;46.706;12.340;2024-01-15T04:37:46;-5.599999904632568;70.0999984741211
85052;DHT22;75382;46.706;12.340;2024-01-15T04:38:48;-5.599999904632568;70.19999694824219
85052;DHT22;75382;46.706;12.340;2024-01-15T04:39:49;-5.5;70.19999694824219
85052;DHT22;75382;46.706;12.340;2024-01-15T04:40:46;-5.5;70.19999694824219
85052;DHT22;75382;46.706;12.340;2024-01-15T04:41:46;-5.5;70.19999694824219
85052;DHT22;75382;46.706;12.340;2024-01-15T04:42:47;-5.5;70.19999694824219